sensor_id;sensor_type;location;lat;lon;timestamp;temperature;humidity
22173;DHT22;11252;50.596;17.648;2023-04-25T00:01:25;9.80;92.20
22173;DHT22;11252;50.596;17.648;2023-04-25T00:03:52;9.80;92.20
22173;DHT22;11252;50.596;17.648;2023-04-25T00:06:20;9.80;92.20
22173;DHT22;11252;50.596;17.648;2023-04-25T00:08:47;9.70;92.20
22173;DHT22;11252;50.596;17.648;2023-04-25T00:11:15;9.80;92.20
22173;DHT22;11252;50.596;17.648;2023-04-25T00:13:42;9.70;92.20
22173;DHT22;11252;50.596;17.648;2023-04-25T00:16:10;9.70;92.20
22173;DHT22;11252;50.596;17.648;2023-04-25T00:18:38;9.70;92.20
22173;DHT22;11252;50.596;17.648;2023-04-25T00:21:05;9.60;92.20
22173;DHT22;11252;50.596;17.648;2023-04-25T00:23:33;9.60;92.20
22173;DHT22;11252;50.596;17.648;2023-04-25T00:26:02;9.60;92.20
22173;DHT22;11252;50.596;17.648;2023-04-25T00:28:29;9.60;92.20
22173;DHT22;11252;50.596;17.648;2023-04-25T00:30:57;9.50;92.20
22173;DHT22;11252;50.596;17.648;2023-04-25T00:33:24;9.50;92.20
22173;DHT22;11252;50.596;17.648;2023-04-25T00:35:51;9.50;92.20
22173;DHT22;11252;50.596;17.648;2023-04-25T00:38:19;9.50;92.20
22173;DHT22;11252;50.596;17.648;2023-04-25T00:40:49;9.50;92.20
22173;DHT22;11252;50.596;17.648;2023-04-25T00:43:16;9.50;92.20
22173;DHT22;11252;50.596;17.648;2023-04-25T00:45:47;9.40;92.20
22173;DHT22;11252;50.596;17.648;2023-04-25T00:48:14;9.40;92.20
22173;DHT22;11252;50.596;17.648;2023-04-25T00:50:43;9.30;92.20
22173;DHT22;11252;50.596;17.648;2023-04-25T00:53:11;9.30;92.20
22173;DHT22;11252;50.596;17.648;2023-04-25T00:55:39;9.30;92.20
22173;DHT22;11252;50.596;17.648;2023-04-25T00:58:06;9.30;92.20
22173;DHT22;11252;50.596;17.648;2023-04-25T01:00:34;9.30;92.20
22173;DHT22;11252;50.596;17.648;2023-04-25T01:03:03;9.30;92.20
22173;DHT22;11252;50.596;17.648;2023-04-25T01:05:31;9.30;92.20
22173;DHT22;11252;50.596;17.648;2023-04-25T01:07:58;9.20;92.20
22173;DHT22;11252;50.596;17.648;2023-04-25T01:10:26;9.20;92.20
22173;DHT22;11252;50.596;17.648;2023-04-25T01:12:54;9.20;92.20
22173;DHT22;11252;50.596;17.648;2023-04-25T01:15:21;9.20;92.20
22173;DHT22;11252;50.596;17.648;2023-04-25T01:17:49;9.30;92.20
22173;DHT22;11252;50.596;17.648;2023-04-25T01:20:16;9.30;92.20
22173;DHT22;11252;50.596;17.648;2023-04-25T01:22:44;9.30;92.20
22173;DHT22;11252;50.596;17.648;2023-04-25T01:25:11;9.30;92.20
22173;DHT22;11252;50.596;17.648;2023-04-25T01:27:39;9.30;92.20
22173;DHT22;11252;50.596;17.648;2023-04-25T01:30:07;9.30;92.20
22173;DHT22;11252;50.596;17.648;2023-04-25T01:32:36;9.30;92.20
22173;DHT22;11252;50.596;17.648;2023-04-25T01:35:07;9.30;92.20
22173;DHT22;11252;50.596;17.648;2023-04-25T01:37:40;9.30;92.20
22173;DHT22;11252;50.596;17.648;2023-04-25T01:40:09;9.30;92.20
22173;DHT22;11252;50.596;17.648;2023-04-25T01:42:39;9.30;92.20
22173;DHT22;11252;50.596;17.648;2023-04-25T01:45:07;9.30;92.20
22173;DHT22;11252;50.596;17.648;2023-04-25T01:47:35;9.30;92.20
22173;DHT22;11252;50.596;17.648;2023-04-25T01:50:04;9.30;92.20
22173;DHT22;11252;50.596;17.648;2023-04-25T01:52:31;9.30;92.20
22173;DHT22;11252;50.596;17.648;2023-04-25T01:55:00;9.30;92.20
22173;DHT22;11252;50.596;17.648;2023-04-25T01:57:28;9.30;92.20
22173;DHT22;11252;50.596;17.648;2023-04-25T02:00:00;9.30;92.20
22173;DHT22;11252;50.596;17.648;2023-04-25T02:02:28;9.30;92.20
22173;DHT22;11252;50.596;17.648;2023-04-25T02:04:56;9.30;92.20
22173;DHT22;11252;50.596;17.648;2023-04-25T02:07:23;9.30;92.20
22173;DHT22;11252;50.596;17.648;2023-04-25T02:09:50;9.20;92.20
22173;DHT22;11252;50.596;17.648;2023-04-25T02:12:17;9.20;92.20
22173;DHT22;11252;50.596;17.648;2023-04-25T02:14:45;9.20;92.20
22173;DHT22;11252;50.596;17.648;2023-04-25T02:17:12;9.10;92.20
22173;DHT22;11252;50.596;17.648;2023-04-25T02:19:40;9.10;92.20
22173;DHT22;11252;50.596;17.648;2023-04-25T02:22:07;9.10;92.20
22173;DHT22;11252;50.596;17.648;2023-04-25T02:24:35;9.10;92.20
22173;DHT22;11252;50.596;17.648;2023-04-25T02:27:02;9.00;92.20
22173;DHT22;11252;50.596;17.648;2023-04-25T02:29:30;9.00;92.20
22173;DHT22;11252;50.596;17.648;2023-04-25T02:31:57;9.00;92.20
22173;DHT22;11252;50.596;17.648;2023-04-25T02:34:24;9.00;92.20
22173;DHT22;11252;50.596;17.648;2023-04-25T02:36:52;9.00;92.20
22173;DHT22;11252;50.596;17.648;2023-04-25T02:39:19;9.00;92.20
22173;DHT22;11252;50.596;17.648;2023-04-25T02:41:46;9.00;92.20
22173;DHT22;11252;50.596;17.648;2023-04-25T02:44:13;9.00;92.20
22173;DHT22;11252;50.596;17.648;2023-04-25T02:46:40;9.00;92.20
22173;DHT22;11252;50.596;17.648;2023-04-25T02:49:08;9.00;92.20
22173;DHT22;11252;50.596;17.648;2023-04-25T02:51:35;8.90;92.20
22173;DHT22;11252;50.596;17.648;2023-04-25T02:54:04;8.90;92.20
22173;DHT22;11252;50.596;17.648;2023-04-25T02:56:31;9.00;92.20
22173;DHT22;11252;50.596;17.648;2023-04-25T02:58:59;9.00;92.20
22173;DHT22;11252;50.596;17.648;2023-04-25T03:01:26;8.90;92.20
22173;DHT22;11252;50.596;17.648;2023-04-25T03:03:54;8.90;92.20
22173;DHT22;11252;50.596;17.648;2023-04-25T03:06:22;8.90;92.20
22173;DHT22;11252;50.596;17.648;2023-04-25T03:08:49;8.90;92.20
22173;DHT22;11252;50.596;17.648;2023-04-25T03:11:16;8.90;92.20
22173;DHT22;11252;50.596;17.648;2023-04-25T03:13:43;8.80;92.20
22173;DHT22;11252;50.596;17.648;2023-04-25T03:16:11;8.80;92.20
22173;DHT22;11252;50.596;17.648;2023-04-25T03:18:38;8.80;92.20
22173;DHT22;11252;50.596;17.648;2023-04-25T03:21:06;8.80;92.20
22173;DHT22;11252;50.596;17.648;2023-04-25T03:23:33;8.80;92.20
22173;DHT22;11252;50.596;17.648;2023-04-25T03:26:01;8.70;92.20
22173;DHT22;11252;50.596;17.648;2023-04-25T03:28:28;8.70;92.20
22173;DHT22;11252;50.596;17.648;2023-04-25T03:30:56;8.70;92.20
22173;DHT22;11252;50.596;17.648;2023-04-25T03:33:23;8.70;92.20
22173;DHT22;11252;50.596;17.648;2023-04-25T03:35:51;8.70;92.20
22173;DHT22;11252;50.596;17.648;2023-04-25T03:38:18;8.70;92.20
22173;DHT22;11252;50.596;17.648;2023-04-25T03:40:46;8.70;92.20
22173;DHT22;11252;50.596;17.648;2023-04-25T03:43:13;8.70;92.20
22173;DHT22;11252;50.596;17.648;2023-04-25T03:45:40;8.70;92.20
22173;DHT22;11252;50.596;17.648;2023-04-25T03:48:08;8.60;92.20
22173;DHT22;11252;50.596;17.648;2023-04-25T03:50:36;8.60;92.20
22173;DHT22;11252;50.596;17.648;2023-04-25T03:53:03;8.60;92.20
22173;DHT22;11252;50.596;17.648;2023-04-25T03:55:30;8.60;92.20
22173;DHT22;11252;50.596;17.648;2023-04-25T03:57:58;8.60;92.20
22173;DHT22;11252;50.596;17.648;2023-04-25T04:00:26;8.60;92.20
22173;DHT22;11252;50.596;17.648;2023-04-25T04:02:53;8.50;92.20
22173;DHT22;11252;50.596;17.648;2023-04-25T04:05:21;8.50;92.20
22173;DHT22;11252;50.596;17.648;2023-04-25T04:07:49;8.50;92.20
22173;DHT22;11252;50.596;17.648;2023-04-25T04:10:16;8.50;92.20
22173;DHT22;11252;50.596;17.648;2023-04-25T04:12:47;8.60;92.20
22173;DHT22;11252;50.596;17.648;2023-04-25T04:15:14;8.60;92.20
22173;DHT22;11252;50.596;17.648;2023-04-25T04:17:41;8.60;92.20
22173;DHT22;11252;50.596;17.648;2023-04-25T04:20:10;8.50;92.20
22173;DHT22;11252;50.596;17.648;2023-04-25T04:22:39;8.50;92.20
22173;DHT22;11252;50.596;17.648;2023-04-25T04:25:07;8.50;92.20
22173;DHT22;11252;50.596;17.648;2023-04-25T04:27:34;8.50;92.20
22173;DHT22;11252;50.596;17.648;2023-04-25T04:30:02;8.40;92.20
22173;DHT22;11252;50.596;17.648;2023-04-25T04:32:30;8.50;92.20
22173;DHT22;11252;50.596;17.648;2023-04-25T04:34:57;8.50;92.20
22173;DHT22;11252;50.596;17.648;2023-04-25T04:37:25;8.50;92.20
22173;DHT22;11252;50.596;17.648;2023-04-25T04:39:52;8.60;92.20
22173;DHT22;11252;50.596;17.648;2023-04-25T04:42:19;8.60;92.20
22173;DHT22;11252;50.596;17.648;2023-04-25T04:44:48;8.60;92.20
22173;DHT22;11252;50.596;17.648;2023-04-25T04:47:15;8.60;92.20
22173;DHT22;11252;50.596;17.648;2023-04-25T04:49:42;8.60;92.20
22173;DHT22;11252;50.596;17.648;2023-04-25T04:52:10;8.70;92.20
22173;DHT22;11252;50.596;17.648;2023-04-25T04:54:37;8.80;92.20
22173;DHT22;11252;50.596;17.648;2023-04-25T04:57:04;8.80;92.20
22173;DHT22;11252;50.596;17.648;2023-04-25T04:59:31;8.90;92.20
22173;DHT22;11252;50.596;17.648;2023-04-25T05:01:59;8.90;92.20
22173;DHT22;11252;50.596;17.648;2023-04-25T05:04:26;8.90;92.20
22173;DHT22;11252;50.596;17.648;2023-04-25T05:06:53;9.00;92.20
22173;DHT22;11252;50.596;17.648;2023-04-25T05:09:21;9.00;92.20
22173;DHT22;11252;50.596;17.648;2023-04-25T05:11:52;9.00;92.20
22173;DHT22;11252;50.596;17.648;2023-04-25T05:14:20;9.00;92.20
22173;DHT22;11252;50.596;17.648;2023-04-25T05:16:48;9.10;92.20
22173;DHT22;11252;50.596;17.648;2023-04-25T05:19:16;9.10;92.20
22173;DHT22;11252;50.596;17.648;2023-04-25T05:21:43;9.20;92.20
22173;DHT22;11252;50.596;17.648;2023-04-25T05:24:10;9.20;92.20
22173;DHT22;11252;50.596;17.648;2023-04-25T05:26:37;9.20;92.20
22173;DHT22;11252;50.596;17.648;2023-04-25T05:29:05;9.30;92.20
22173;DHT22;11252;50.596;17.648;2023-04-25T05:31:33;9.30;92.20
22173;DHT22;11252;50.596;17.648;2023-04-25T05:34:00;9.40;92.20
22173;DHT22;11252;50.596;17.648;2023-04-25T05:36:27;9.40;92.20
22173;DHT22;11252;50.596;17.648;2023-04-25T05:38:55;9.50;92.20
22173;DHT22;11252;50.596;17.648;2023-04-25T05:41:22;9.60;92.20
22173;DHT22;11252;50.596;17.648;2023-04-25T05:43:49;9.60;92.20
22173;DHT22;11252;50.596;17.648;2023-04-25T05:46:18;9.70;92.20
22173;DHT22;11252;50.596;17.648;2023-04-25T05:48:48;9.70;92.20
22173;DHT22;11252;50.596;17.648;2023-04-25T05:51:16;9.80;92.20
22173;DHT22;11252;50.596;17.648;2023-04-25T05:53:45;9.80;92.20
22173;DHT22;11252;50.596;17.648;2023-04-25T05:56:12;9.80;92.20
22173;DHT22;11252;50.596;17.648;2023-04-25T05:58:40;9.90;92.20
22173;DHT22;11252;50.596;17.648;2023-04-25T06:01:08;9.80;92.20
22173;DHT22;11252;50.596;17.648;2023-04-25T06:03:36;9.90;92.20
22173;DHT22;11252;50.596;17.648;2023-04-25T06:06:05;9.80;92.20
22173;DHT22;11252;50.596;17.648;2023-04-25T06:08:32;9.80;92.20
22173;DHT22;11252;50.596;17.648;2023-04-25T06:10:59;9.90;92.20
22173;DHT22;11252;50.596;17.648;2023-04-25T06:13:27;9.90;92.20
22173;DHT22;11252;50.596;17.648;2023-04-25T06:15:54;9.90;92.20
22173;DHT22;11252;50.596;17.648;2023-04-25T06:18:21;10.00;92.20
22173;DHT22;11252;50.596;17.648;2023-04-25T06:20:49;10.10;92.20
22173;DHT22;11252;50.596;17.648;2023-04-25T06:23:16;10.20;92.20
22173;DHT22;11252;50.596;17.648;2023-04-25T06:25:43;10.20;92.20
22173;DHT22;11252;50.596;17.648;2023-04-25T06:28:10;10.20;92.20
22173;DHT22;11252;50.596;17.648;2023-04-25T06:30:37;10.20;92.20
22173;DHT22;11252;50.596;17.648;2023-04-25T06:33:05;10.30;92.20
22173;DHT22;11252;50.596;17.648;2023-04-25T06:35:32;10.20;92.20
22173;DHT22;11252;50.596;17.648;2023-04-25T06:37:59;10.20;92.20
22173;DHT22;11252;50.596;17.648;2023-04-25T06:40:27;10.20;92.20
22173;DHT22;11252;50.596;17.648;2023-04-25T06:42:54;10.30;92.20
22173;DHT22;11252;50.596;17.648;2023-04-25T06:45:22;10.30;92.20
22173;DHT22;11252;50.596;17.648;2023-04-25T06:47:49;10.30;92.20
22173;DHT22;11252;50.596;17.648;2023-04-25T06:50:16;10.40;92.20
22173;DHT22;11252;50.596;17.648;2023-04-25T06:52:44;10.40;92.20
22173;DHT22;11252;50.596;17.648;2023-04-25T06:55:11;10.50;92.20
22173;DHT22;11252;50.596;17.648;2023-04-25T06:57:38;10.60;92.10
22173;DHT22;11252;50.596;17.648;2023-04-25T07:00:06;10.50;91.90
22173;DHT22;11252;50.596;17.648;2023-04-25T07:02:36;10.50;92.20
22173;DHT22;11252;50.596;17.648;2023-04-25T07:05:04;10.70;92.20
22173;DHT22;11252;50.596;17.648;2023-04-25T07:07:32;10.90;92.20
22173;DHT22;11252;50.596;17.648;2023-04-25T07:10:01;10.90;91.70
22173;DHT22;11252;50.596;17.648;2023-04-25T07:12:28;10.90;92.20
22173;DHT22;11252;50.596;17.648;2023-04-25T07:14:56;10.90;92.20
22173;DHT22;11252;50.596;17.648;2023-04-25T07:17:23;10.90;90.60
22173;DHT22;11252;50.596;17.648;2023-04-25T07:19:50;10.90;91.10
22173;DHT22;11252;50.596;17.648;2023-04-25T07:22:18;11.00;91.70
22173;DHT22;11252;50.596;17.648;2023-04-25T07:24:46;11.10;90.80
22173;DHT22;11252;50.596;17.648;2023-04-25T07:27:15;11.20;91.80
22173;DHT22;11252;50.596;17.648;2023-04-25T07:29:42;11.30;91.10
22173;DHT22;11252;50.596;17.648;2023-04-25T07:32:10;11.40;91.90
22173;DHT22;11252;50.596;17.648;2023-04-25T07:34:39;11.40;91.20
22173;DHT22;11252;50.596;17.648;2023-04-25T07:37:06;11.50;91.40
22173;DHT22;11252;50.596;17.648;2023-04-25T07:39:34;11.60;90.00
22173;DHT22;11252;50.596;17.648;2023-04-25T07:42:02;11.70;89.90
22173;DHT22;11252;50.596;17.648;2023-04-25T07:44:31;11.70;89.00
22173;DHT22;11252;50.596;17.648;2023-04-25T07:46:58;11.70;89.20
22173;DHT22;11252;50.596;17.648;2023-04-25T07:49:28;11.80;89.00
22173;DHT22;11252;50.596;17.648;2023-04-25T07:51:55;12.00;88.40
22173;DHT22;11252;50.596;17.648;2023-04-25T07:54:23;12.00;88.30
22173;DHT22;11252;50.596;17.648;2023-04-25T07:56:50;12.10;88.50
22173;DHT22;11252;50.596;17.648;2023-04-25T07:59:19;12.30;88.60
22173;DHT22;11252;50.596;17.648;2023-04-25T08:01:47;12.50;87.90
22173;DHT22;11252;50.596;17.648;2023-04-25T08:04:14;12.60;86.10
22173;DHT22;11252;50.596;17.648;2023-04-25T08:06:42;12.70;86.90
22173;DHT22;11252;50.596;17.648;2023-04-25T08:09:10;12.60;84.60
22173;DHT22;11252;50.596;17.648;2023-04-25T08:11:37;12.40;88.20
22173;DHT22;11252;50.596;17.648;2023-04-25T08:14:05;12.30;84.80
22173;DHT22;11252;50.596;17.648;2023-04-25T08:16:33;12.40;86.30
22173;DHT22;11252;50.596;17.648;2023-04-25T08:19:01;12.70;86.50
22173;DHT22;11252;50.596;17.648;2023-04-25T08:21:29;12.70;85.20
22173;DHT22;11252;50.596;17.648;2023-04-25T08:23:57;12.80;84.00
22173;DHT22;11252;50.596;17.648;2023-04-25T08:26:25;12.90;84.70
22173;DHT22;11252;50.596;17.648;2023-04-25T08:28:52;12.80;85.10
22173;DHT22;11252;50.596;17.648;2023-04-25T08:31:20;12.80;85.40
22173;DHT22;11252;50.596;17.648;2023-04-25T08:33:47;13.00;85.50
22173;DHT22;11252;50.596;17.648;2023-04-25T08:36:16;13.10;84.60
22173;DHT22;11252;50.596;17.648;2023-04-25T08:39:03;13.30;84.60
22173;DHT22;11252;50.596;17.648;2023-04-25T08:41:31;13.40;84.60
22173;DHT22;11252;50.596;17.648;2023-04-25T08:43:59;13.50;84.00
22173;DHT22;11252;50.596;17.648;2023-04-25T08:46:29;13.90;84.40
22173;DHT22;11252;50.596;17.648;2023-04-25T08:49:01;13.80;84.20
22173;DHT22;11252;50.596;17.648;2023-04-25T08:51:31;13.60;83.30
22173;DHT22;11252;50.596;17.648;2023-04-25T08:54:11;13.70;83.90
22173;DHT22;11252;50.596;17.648;2023-04-25T08:57:01;13.70;82.50
22173;DHT22;11252;50.596;17.648;2023-04-25T08:59:32;13.80;83.90
22173;DHT22;11252;50.596;17.648;2023-04-25T09:02:01;13.90;84.10
22173;DHT22;11252;50.596;17.648;2023-04-25T09:04:31;14.00;83.50
22173;DHT22;11252;50.596;17.648;2023-04-25T09:06:59;14.10;82.50
22173;DHT22;11252;50.596;17.648;2023-04-25T09:09:26;14.00;82.60
22173;DHT22;11252;50.596;17.648;2023-04-25T09:11:54;14.00;82.40
22173;DHT22;11252;50.596;17.648;2023-04-25T09:14:23;14.00;83.00
22173;DHT22;11252;50.596;17.648;2023-04-25T09:19:25;14.20;82.00
22173;DHT22;11252;50.596;17.648;2023-04-25T09:22:06;14.20;83.00
22173;DHT22;11252;50.596;17.648;2023-04-25T09:24:39;14.30;82.50
22173;DHT22;11252;50.596;17.648;2023-04-25T09:27:09;14.30;81.90
22173;DHT22;11252;50.596;17.648;2023-04-25T09:29:38;14.30;82.30
22173;DHT22;11252;50.596;17.648;2023-04-25T09:32:23;14.50;82.00
22173;DHT22;11252;50.596;17.648;2023-04-25T09:34:56;14.90;83.00
22173;DHT22;11252;50.596;17.648;2023-04-25T09:37:29;15.20;82.90
22173;DHT22;11252;50.596;17.648;2023-04-25T09:40:00;15.30;81.20
22173;DHT22;11252;50.596;17.648;2023-04-25T09:42:32;15.70;79.90
22173;DHT22;11252;50.596;17.648;2023-04-25T09:45:02;15.70;79.30
22173;DHT22;11252;50.596;17.648;2023-04-25T09:47:30;15.90;79.10
22173;DHT22;11252;50.596;17.648;2023-04-25T09:49:59;15.80;79.30
22173;DHT22;11252;50.596;17.648;2023-04-25T09:52:26;15.70;80.50
22173;DHT22;11252;50.596;17.648;2023-04-25T09:54:57;15.90;80.50
22173;DHT22;11252;50.596;17.648;2023-04-25T09:57:24;16.20;77.90
22173;DHT22;11252;50.596;17.648;2023-04-25T09:59:53;16.00;77.00
22173;DHT22;11252;50.596;17.648;2023-04-25T10:02:26;15.20;78.60
22173;DHT22;11252;50.596;17.648;2023-04-25T10:04:55;15.10;79.60
22173;DHT22;11252;50.596;17.648;2023-04-25T10:07:24;15.40;81.80
22173;DHT22;11252;50.596;17.648;2023-04-25T10:10:04;15.80;79.40
22173;DHT22;11252;50.596;17.648;2023-04-25T10:12:33;16.40;76.80
22173;DHT22;11252;50.596;17.648;2023-04-25T10:15:02;16.70;76.50
22173;DHT22;11252;50.596;17.648;2023-04-25T10:17:30;16.60;76.90
22173;DHT22;11252;50.596;17.648;2023-04-25T10:19:58;16.50;75.40
22173;DHT22;11252;50.596;17.648;2023-04-25T10:22:36;15.80;77.30
22173;DHT22;11252;50.596;17.648;2023-04-25T10:25:04;15.70;77.50
22173;DHT22;11252;50.596;17.648;2023-04-25T10:27:36;15.60;76.30
22173;DHT22;11252;50.596;17.648;2023-04-25T10:30:13;15.80;77.70
22173;DHT22;11252;50.596;17.648;2023-04-25T10:32:43;16.00;78.40
22173;DHT22;11252;50.596;17.648;2023-04-25T10:38:03;15.70;77.40
22173;DHT22;11252;50.596;17.648;2023-04-25T10:40:32;15.90;79.00
22173;DHT22;11252;50.596;17.648;2023-04-25T10:46:01;16.60;76.10
22173;DHT22;11252;50.596;17.648;2023-04-25T10:48:30;16.40;75.10
22173;DHT22;11252;50.596;17.648;2023-04-25T10:51:08;16.10;76.80
22173;DHT22;11252;50.596;17.648;2023-04-25T10:53:36;15.90;77.90
22173;DHT22;11252;50.596;17.648;2023-04-25T10:56:11;16.30;77.50
22173;DHT22;11252;50.596;17.648;2023-04-25T10:58:46;16.50;77.20
22173;DHT22;11252;50.596;17.648;2023-04-25T11:01:24;16.50;75.30
22173;DHT22;11252;50.596;17.648;2023-04-25T11:03:57;16.60;76.30
22173;DHT22;11252;50.596;17.648;2023-04-25T11:06:42;16.70;76.40
22173;DHT22;11252;50.596;17.648;2023-04-25T11:09:13;16.60;75.10
22173;DHT22;11252;50.596;17.648;2023-04-25T11:11:40;16.60;77.60
22173;DHT22;11252;50.596;17.648;2023-04-25T11:14:08;16.90;76.20
22173;DHT22;11252;50.596;17.648;2023-04-25T11:16:35;16.90;76.10
22173;DHT22;11252;50.596;17.648;2023-04-25T11:19:03;16.90;78.10
22173;DHT22;11252;50.596;17.648;2023-04-25T11:21:31;17.00;76.40
22173;DHT22;11252;50.596;17.648;2023-04-25T11:23:59;17.00;76.80
22173;DHT22;11252;50.596;17.648;2023-04-25T11:26:30;16.80;78.50
22173;DHT22;11252;50.596;17.648;2023-04-25T11:28:58;17.10;77.20
22173;DHT22;11252;50.596;17.648;2023-04-25T11:31:29;17.50;77.50
22173;DHT22;11252;50.596;17.648;2023-04-25T11:33:58;18.20;77.70
22173;DHT22;11252;50.596;17.648;2023-04-25T11:36:30;18.00;73.60
22173;DHT22;11252;50.596;17.648;2023-04-25T11:38:58;17.30;74.60
22173;DHT22;11252;50.596;17.648;2023-04-25T11:41:26;16.50;74.10
22173;DHT22;11252;50.596;17.648;2023-04-25T11:43:53;16.20;75.30
22173;DHT22;11252;50.596;17.648;2023-04-25T11:46:22;15.80;76.70
22173;DHT22;11252;50.596;17.648;2023-04-25T11:48:49;16.10;76.40
22173;DHT22;11252;50.596;17.648;2023-04-25T11:51:18;15.90;75.50
22173;DHT22;11252;50.596;17.648;2023-04-25T11:53:45;16.70;76.10
22173;DHT22;11252;50.596;17.648;2023-04-25T11:56:14;17.70;74.00
22173;DHT22;11252;50.596;17.648;2023-04-25T11:59:02;17.80;73.40
22173;DHT22;11252;50.596;17.648;2023-04-25T12:01:34;17.30;72.50
22173;DHT22;11252;50.596;17.648;2023-04-25T12:04:16;17.00;73.80
22173;DHT22;11252;50.596;17.648;2023-04-25T12:06:45;16.40;73.90
22173;DHT22;11252;50.596;17.648;2023-04-25T12:09:20;16.30;75.70
22173;DHT22;11252;50.596;17.648;2023-04-25T12:11:56;16.00;74.30
22173;DHT22;11252;50.596;17.648;2023-04-25T12:14:30;15.40;74.80
22173;DHT22;11252;50.596;17.648;2023-04-25T12:17:01;15.20;78.20
22173;DHT22;11252;50.596;17.648;2023-04-25T12:19:36;15.30;80.10
22173;DHT22;11252;50.596;17.648;2023-04-25T12:22:24;15.50;80.40
22173;DHT22;11252;50.596;17.648;2023-04-25T12:24:51;15.20;76.70
22173;DHT22;11252;50.596;17.648;2023-04-25T12:27:21;15.00;77.70
22173;DHT22;11252;50.596;17.648;2023-04-25T12:29:53;15.00;78.20
22173;DHT22;11252;50.596;17.648;2023-04-25T12:32:22;14.90;77.30
22173;DHT22;11252;50.596;17.648;2023-04-25T12:34:49;14.80;78.40
22173;DHT22;11252;50.596;17.648;2023-04-25T12:37:18;15.00;78.50
22173;DHT22;11252;50.596;17.648;2023-04-25T12:39:45;15.20;78.90
22173;DHT22;11252;50.596;17.648;2023-04-25T12:42:13;15.10;77.80
22173;DHT22;11252;50.596;17.648;2023-04-25T12:44:40;15.20;77.90
22173;DHT22;11252;50.596;17.648;2023-04-25T12:47:08;15.10;77.90
22173;DHT22;11252;50.596;17.648;2023-04-25T12:49:41;15.10;77.60
22173;DHT22;11252;50.596;17.648;2023-04-25T12:52:08;15.00;77.40
22173;DHT22;11252;50.596;17.648;2023-04-25T12:54:35;15.00;77.30
22173;DHT22;11252;50.596;17.648;2023-04-25T12:57:03;15.00;77.30
22173;DHT22;11252;50.596;17.648;2023-04-25T12:59:30;15.00;76.40
22173;DHT22;11252;50.596;17.648;2023-04-25T13:01:57;14.90;77.10
22173;DHT22;11252;50.596;17.648;2023-04-25T13:04:25;15.00;78.00
22173;DHT22;11252;50.596;17.648;2023-04-25T13:06:52;15.20;78.10
22173;DHT22;11252;50.596;17.648;2023-04-25T13:09:20;15.10;77.80
22173;DHT22;11252;50.596;17.648;2023-04-25T13:11:48;15.00;78.10
22173;DHT22;11252;50.596;17.648;2023-04-25T13:14:15;15.00;78.70
22173;DHT22;11252;50.596;17.648;2023-04-25T13:16:42;14.90;77.70
22173;DHT22;11252;50.596;17.648;2023-04-25T13:19:10;14.80;78.80
22173;DHT22;11252;50.596;17.648;2023-04-25T13:21:38;14.90;78.70
22173;DHT22;11252;50.596;17.648;2023-04-25T13:24:06;14.90;78.60
22173;DHT22;11252;50.596;17.648;2023-04-25T13:26:33;15.00;77.40
22173;DHT22;11252;50.596;17.648;2023-04-25T13:29:01;15.20;77.80
22173;DHT22;11252;50.596;17.648;2023-04-25T13:31:31;15.50;77.80
22173;DHT22;11252;50.596;17.648;2023-04-25T13:33:58;15.70;76.60
22173;DHT22;11252;50.596;17.648;2023-04-25T13:36:25;15.70;76.60
22173;DHT22;11252;50.596;17.648;2023-04-25T13:38:53;15.50;76.30
22173;DHT22;11252;50.596;17.648;2023-04-25T13:41:20;15.20;75.70
22173;DHT22;11252;50.596;17.648;2023-04-25T13:43:49;15.20;76.10
22173;DHT22;11252;50.596;17.648;2023-04-25T13:46:17;15.00;76.10
22173;DHT22;11252;50.596;17.648;2023-04-25T13:48:47;14.90;77.20
22173;DHT22;11252;50.596;17.648;2023-04-25T13:55:35;15.20;77.10
22173;DHT22;11252;50.596;17.648;2023-04-25T13:58:05;15.20;77.20
22173;DHT22;11252;50.596;17.648;2023-04-25T14:00:39;15.10;77.10
22173;DHT22;11252;50.596;17.648;2023-04-25T14:03:07;15.20;76.90
22173;DHT22;11252;50.596;17.648;2023-04-25T14:05:36;15.30;77.10
22173;DHT22;11252;50.596;17.648;2023-04-25T14:08:08;15.30;77.20
22173;DHT22;11252;50.596;17.648;2023-04-25T14:10:36;15.30;77.20
22173;DHT22;11252;50.596;17.648;2023-04-25T14:13:05;15.20;77.80
22173;DHT22;11252;50.596;17.648;2023-04-25T14:15:34;15.20;77.60
22173;DHT22;11252;50.596;17.648;2023-04-25T14:18:02;15.20;77.70
22173;DHT22;11252;50.596;17.648;2023-04-25T14:20:29;15.40;77.90
22173;DHT22;11252;50.596;17.648;2023-04-25T14:22:58;15.70;74.30
22173;DHT22;11252;50.596;17.648;2023-04-25T14:25:27;16.00;75.70
22173;DHT22;11252;50.596;17.648;2023-04-25T14:27:56;16.60;72.80
22173;DHT22;11252;50.596;17.648;2023-04-25T14:30:23;16.90;72.40
22173;DHT22;11252;50.596;17.648;2023-04-25T14:32:51;17.00;70.40
22173;DHT22;11252;50.596;17.648;2023-04-25T14:35:18;17.20;71.30
22173;DHT22;11252;50.596;17.648;2023-04-25T14:37:45;17.60;71.10
22173;DHT22;11252;50.596;17.648;2023-04-25T14:40:13;17.60;70.20
22173;DHT22;11252;50.596;17.648;2023-04-25T14:42:42;17.20;71.50
22173;DHT22;11252;50.596;17.648;2023-04-25T14:45:10;16.40;70.30
22173;DHT22;11252;50.596;17.648;2023-04-25T14:47:37;16.10;71.40
22173;DHT22;11252;50.596;17.648;2023-04-25T14:50:06;16.00;72.40
22173;DHT22;11252;50.596;17.648;2023-04-25T14:52:34;15.80;73.30
22173;DHT22;11252;50.596;17.648;2023-04-25T14:55:02;16.00;73.60
22173;DHT22;11252;50.596;17.648;2023-04-25T14:57:32;16.60;72.40
22173;DHT22;11252;50.596;17.648;2023-04-25T15:00:00;16.50;71.90
22173;DHT22;11252;50.596;17.648;2023-04-25T15:02:28;16.30;71.30
22173;DHT22;11252;50.596;17.648;2023-04-25T15:04:55;15.90;72.30
22173;DHT22;11252;50.596;17.648;2023-04-25T15:07:23;15.50;73.90
22173;DHT22;11252;50.596;17.648;2023-04-25T15:09:50;15.40;75.30
22173;DHT22;11252;50.596;17.648;2023-04-25T15:12:20;15.50;74.30
22173;DHT22;11252;50.596;17.648;2023-04-25T15:14:47;15.60;75.50
22173;DHT22;11252;50.596;17.648;2023-04-25T15:17:15;15.70;74.00
22173;DHT22;11252;50.596;17.648;2023-04-25T15:19:42;15.40;73.00
22173;DHT22;11252;50.596;17.648;2023-04-25T15:22:13;15.20;73.80
22173;DHT22;11252;50.596;17.648;2023-04-25T15:24:41;15.00;74.50
22173;DHT22;11252;50.596;17.648;2023-04-25T15:27:09;14.70;74.40
22173;DHT22;11252;50.596;17.648;2023-04-25T15:29:37;14.50;75.50
22173;DHT22;11252;50.596;17.648;2023-04-25T15:32:04;14.50;75.80
22173;DHT22;11252;50.596;17.648;2023-04-25T15:34:31;14.40;74.70
22173;DHT22;11252;50.596;17.648;2023-04-25T15:37:00;14.30;75.70
22173;DHT22;11252;50.596;17.648;2023-04-25T15:39:30;14.30;75.50
22173;DHT22;11252;50.596;17.648;2023-04-25T15:41:58;14.30;75.80
22173;DHT22;11252;50.596;17.648;2023-04-25T15:44:25;14.20;76.50